Time;durP1;ratioP1;P1;durP2;ratioP2;P2;SDS_P1;SDS_P2;PMS_P1;PMS_P2;Temp;Humidity;BMP_temperature;BMP_pressure;BME280_temperature;BME280_humidity;BME280_pressure;Samples;Min_cycle;Max_cycle;Signal;HPM_P1;HPM_P2
2022/08/05 00:00:24;;;;;;;5.47;2.50;;;26.70;73.10;;;;;;5030860;28;20400;-59
2022/08/05 00:03:28;;;;;;;4.43;2.00;;;26.70;72.90;;;;;;5030225;28;20045;-58
2022/08/05 00:06:32;;;;;;;5.40;2.13;;;26.80;73.00;;;;;;5030601;28;20048;-59
2022/08/05 00:09:36;;;;;;;4.72;2.03;;;26.80;73.00;;;;;;5030659;28;20044;-59
2022/08/05 00:12:40;;;;;;;8.45;2.30;;;26.70;73.00;;;;;;5030430;28;20404;-59
2022/08/05 00:15:43;;;;;;;4.55;2.63;;;26.70;73.60;;;;;;5030492;28;20048;-59
2022/08/05 00:18:48;;;;;;;5.38;2.20;;;26.50;73.50;;;;;;5030559;28;20064;-58
2022/08/05 00:21:52;;;;;;;2.97;1.98;;;26.40;73.90;;;;;;5030573;28;20048;-59
2022/08/05 00:24:56;;;;;;;5.13;2.33;;;26.30;74.40;;;;;;5030215;28;20064;-59
2022/08/05 00:28:00;;;;;;;4.57;2.50;;;26.10;74.80;;;;;;5030382;28;20045;-59
2022/08/05 00:31:05;;;;;;;4.03;2.40;;;26.00;74.70;;;;;;5030247;28;20037;-59
2022/08/05 00:34:08;;;;;;;5.85;2.30;;;26.00;74.80;;;;;;5029819;28;20056;-58
2022/08/05 00:37:12;;;;;;;3.35;2.20;;;25.90;75.00;;;;;;5029924;28;20041;-59
2022/08/05 00:40:17;;;;;;;2.40;2.00;;;25.90;75.20;;;;;;5029891;28;20048;-59
2022/08/05 00:43:22;;;;;;;3.55;2.50;;;25.80;75.20;;;;;;5030145;28;20040;-59
2022/08/05 00:46:26;;;;;;;3.50;2.20;;;25.80;75.40;;;;;;5030326;28;20056;-59
2022/08/05 00:49:30;;;;;;;3.35;2.35;;;25.70;75.70;;;;;;5030012;28;20052;-59
2022/08/05 00:52:36;;;;;;;2.78;2.10;;;25.70;75.70;;;;;;5029989;28;20409;-60
2022/08/05 00:55:41;;;;;;;2.42;2.10;;;25.70;75.90;;;;;;5029929;28;20053;-60
2022/08/05 00:58:45;;;;;;;3.03;2.17;;;25.50;76.10;;;;;;5029404;28;20047;-60
2022/08/05 01:01:48;;;;;;;3.28;2.20;;;25.50;76.10;;;;;;5029944;28;20032;-59
2022/08/05 01:04:52;;;;;;;5.18;2.38;;;25.50;76.30;;;;;;5029271;28;20044;-59
2022/08/05 01:07:57;;;;;;;7.78;2.20;;;25.40;76.60;;;;;;5029829;28;20095;-59
2022/08/05 01:11:22;;;;;;;3.53;2.10;;;25.40;76.70;;;;;;5029641;28;20045;-59
2022/08/05 01:14:39;;;;;;;5.00;2.33;;;25.30;76.70;;;;;;5029737;28;20527;-59
2022/08/05 01:17:49;;;;;;;4.53;2.40;;;25.30;76.80;;;;;;5029580;28;20052;-59
2022/08/05 01:21:24;;;;;;;3.55;2.38;;;25.20;77.00;;;;;;5029740;28;20064;-60
2022/08/05 01:25:04;;;;;;;3.03;2.38;;;25.20;77.20;;;;;;5029344;28;20041;-60
2022/08/05 01:28:53;;;;;;;2.72;2.25;;;25.10;77.50;;;;;;5029712;28;20519;-59
2022/08/05 01:32:02;;;;;;;4.55;2.17;;;25.10;77.60;;;;;;4970809;28;20046;-59
2022/08/05 01:35:10;;;;;;;4.28;1.92;;;25.10;77.80;;;;;;5029224;28;20048;-59
2022/08/05 01:38:16;;;;;;;3.58;2.25;;;25.10;78.00;;;;;;5029563;28;20375;-59
2022/08/05 01:41:22;;;;;;;4.65;2.60;;;25.00;77.80;;;;;;5029262;28;20060;-60
2022/08/05 01:44:26;;;;;;;5.03;2.40;;;25.00;78.10;;;;;;5029169;28;20052;-59
2022/08/05 01:47:33;;;;;;;4.40;2.47;;;24.90;78.40;;;;;;5029377;28;20053;-59
2022/08/05 01:50:39;;;;;;;5.18;2.53;;;24.90;78.90;;;;;;5029270;28;20531;-59
2022/08/05 01:53:46;;;;;;;3.17;2.33;;;24.80;78.90;;;;;;5028980;28;20045;-59
2022/08/05 01:56:51;;;;;;;4.93;2.53;;;24.70;79.20;;;;;;5029371;28;20049;-59
2022/08/05 01:59:59;;;;;;;3.40;2.30;;;24.70;79.40;;;;;;5029468;28;20041;-59
2022/08/05 02:03:20;;;;;;;16.63;2.50;;;24.70;79.50;;;;;;5029080;28;20044;-59
2022/08/05 02:06:25;;;;;;;4.40;2.50;;;24.70;79.60;;;;;;5029551;28;20048;-59
2022/08/05 02:09:29;;;;;;;4.95;2.58;;;24.50;79.90;;;;;;5029413;28;20534;-59
2022/08/05 02:12:53;;;;;;;2.95;2.50;;;24.50;80.10;;;;;;5032996;28;20126;-59
2022/08/05 02:16:04;;;;;;;4.38;2.25;;;24.50;80.30;;;;;;5032992;28;20645;-58
2022/08/05 02:19:13;;;;;;;5.05;2.42;;;24.40;80.40;;;;;;5033360;28;20416;-60
2022/08/05 02:22:25;;;;;;;4.75;2.72;;;24.40;80.50;;;;;;5032895;28;20041;-60
2022/08/05 02:25:38;;;;;;;4.53;2.47;;;24.30;81.10;;;;;;5032895;28;20075;-60
2022/08/05 02:28:43;;;;;;;3.50;2.13;;;24.30;81.10;;;;;;5032876;28;20044;-60
2022/08/05 02:31:50;;;;;;;4.10;2.83;;;24.20;81.20;;;;;;5032837;28;20048;-59
2022/08/05 02:34:54;;;;;;;6.00;2.75;;;24.20;81.70;;;;;;5032683;28;20404;-59
2022/08/05 02:37:59;;;;;;;5.45;2.58;;;24.20;81.90;;;;;;5032935;28;20056;-59
2022/08/05 02:41:06;;;;;;;6.00;2.40;;;24.20;81.70;;;;;;5032700;28;20527;-59
2022/08/05 02:44:11;;;;;;;3.83;2.47;;;24.10;81.90;;;;;;5032073;28;20056;-59
2022/08/05 02:47:16;;;;;;;4.57;2.60;;;24.00;82.40;;;;;;5032774;28;20044;-59
2022/08/05 02:50:21;;;;;;;3.40;2.72;;;23.90;82.70;;;;;;5032573;28;20056;-59
2022/08/05 02:53:29;;;;;;;4.60;2.78;;;23.80;83.00;;;;;;5020136;28;20045;-57
2022/08/05 02:56:33;;;;;;;6.70;2.55;;;23.80;83.40;;;;;;5019746;28;20040;-60
2022/08/05 02:59:40;;;;;;;7.97;3.47;;;23.80;83.40;;;;;;5032102;28;20049;-58
2022/08/05 03:02:46;;;;;;;5.97;2.50;;;23.80;83.50;;;;;;5031217;28;20408;-59
2022/08/05 03:05:51;;;;;;;4.03;2.95;;;23.90;83.40;;;;;;5032225;28;20052;-58
2022/08/05 03:08:55;;;;;;;6.05;2.25;;;23.80;83.30;;;;;;5031655;28;20048;-58
2022/08/05 03:11:59;;;;;;;7.32;2.50;;;23.90;83.60;;;;;;5031708;28;20052;-59
2022/08/05 03:15:06;;;;;;;6.32;2.58;;;23.80;83.70;;;;;;5031499;28;20052;-59
2022/08/05 03:18:10;;;;;;;4.88;2.15;;;23.80;83.90;;;;;;5031761;28;20404;-58
2022/08/05 03:21:14;;;;;;;2.97;2.20;;;23.80;84.10;;;;;;5031215;28;20053;-59
2022/08/05 03:24:19;;;;;;;3.40;2.13;;;23.70;84.10;;;;;;5031491;28;20060;-59
2022/08/05 03:27:23;;;;;;;3.15;2.30;;;23.70;84.60;;;;;;5031676;28;20056;-58
2022/08/05 03:30:31;;;;;;;4.47;2.47;;;23.70;84.70;;;;;;5031634;28;20048;-59
2022/08/05 03:33:35;;;;;;;8.27;2.65;;;23.60;84.80;;;;;;5031068;28;20045;-59
2022/08/05 03:36:39;;;;;;;5.63;2.15;;;23.60;85.10;;;;;;5031378;28;20053;-58
2022/08/05 03:39:57;;;;;;;3.75;2.40;;;23.60;85.30;;;;;;5031738;28;20048;-58
2022/08/05 03:43:01;;;;;;;3.90;2.50;;;23.60;85.30;;;;;;5030971;28;20540;-58
2022/08/05 03:46:05;;;;;;;4.82;2.50;;;23.50;85.80;;;;;;5031538;28;20060;-60
2022/08/05 03:49:09;;;;;;;6.78;2.53;;;23.50;86.20;;;;;;5031474;28;20068;-58
2022/08/05 03:52:21;;;;;;;4.25;2.53;;;23.40;86.30;;;;;;5031025;28;20044;-58
2022/08/05 03:55:27;;;;;;;;;;;23.30;86.70;;;;;;5031332;28;20040;-59
2022/08/05 03:58:34;;;;;;;6.03;3.28;;;23.20;87.20;;;;;;5031080;28;19923;-59
2022/08/05 04:01:43;;;;;;;6.10;3.42;;;23.10;88.20;;;;;;5030998;28;20048;-58
2022/08/05 04:04:47;;;;;;;6.28;4.43;;;22.90;88.90;;;;;;5030660;28;20127;-58
2022/08/05 04:07:52;;;;;;;10.48;4.05;;;22.90;89.60;;;;;;5030897;28;20419;-58
2022/08/05 04:10:57;;;;;;;5.50;3.78;;;22.80;90.20;;;;;;5030513;28;20045;-59
2022/08/05 04:14:02;;;;;;;7.18;4.10;;;22.80;90.10;;;;;;5030197;28;20040;-59
2022/08/05 04:17:08;;;;;;;8.48;4.43;;;22.80;90.10;;;;;;5030368;28;20048;-59
2022/08/05 04:20:21;;;;;;;3.95;3.20;;;22.80;90.00;;;;;;5018130;28;20044;-58
2022/08/05 04:23:27;;;;;;;7.80;3.28;;;22.80;90.20;;;;;;5030165;28;20610;-59
2022/08/05 04:26:31;;;;;;;7.70;2.70;;;22.80;90.40;;;;;;5030427;28;20048;-59
2022/08/05 04:29:35;;;;;;;7.22;3.67;;;22.90;90.60;;;;;;5030461;28;20044;-59
2022/08/05 04:32:39;;;;;;;9.82;4.65;;;22.90;90.80;;;;;;5028481;28;20535;-59
2022/08/05 04:35:43;;;;;;;9.52;4.80;;;22.90;91.30;;;;;;5030404;28;20048;-59
2022/08/05 04:38:47;;;;;;;8.63;4.72;;;22.90;91.50;;;;;;5030634;28;20052;-58
2022/08/05 04:41:51;;;;;;;5.90;4.32;;;23.00;91.90;;;;;;5018299;28;20044;-59
2022/08/05 04:44:55;;;;;;;8.05;4.20;;;23.10;91.90;;;;;;5030150;28;20044;-59
2022/08/05 04:48:08;;;;;;;8.77;3.88;;;23.10;91.90;;;;;;5030502;28;20068;-54
2022/08/05 04:51:13;;;;;;;14.05;5.10;;;23.10;92.10;;;;;;5030281;28;20408;-59
2022/08/05 04:54:18;;;;;;;9.63;5.15;;;23.10;92.10;;;;;;5017591;28;20055;-61
2022/08/05 04:57:22;;;;;;;7.43;4.10;;;23.20;92.00;;;;;;5030558;28;20052;-61
2022/08/05 05:00:27;;;;;;;7.35;3.92;;;23.30;92.20;;;;;;5030281;28;20060;-60
2022/08/05 05:03:31;;;;;;;16.35;4.80;;;23.40;92.30;;;;;;5030258;28;20040;-59
2022/08/05 05:06:36;;;;;;;9.93;4.38;;;24.10;92.10;;;;;;5030244;28;20519;-58
2022/08/05 05:09:40;;;;;;;5.07;3.55;;;26.30;90.50;;;;;;5029920;28;20048;-60
2022/08/05 05:12:44;;;;;;;6.60;3.40;;;28.50;85.70;;;;;;5030343;28;20460;-57
2022/08/05 05:15:49;;;;;;;12.27;4.05;;;30.40;80.90;;;;;;5030171;28;20071;-59
2022/08/05 05:18:53;;;;;;;6.22;3.58;;;31.60;77.40;;;;;;5030247;28;20112;-54
2022/08/05 05:21:57;;;;;;;11.15;3.47;;;32.60;75.30;;;;;;5030395;28;20528;-60
2022/08/05 05:25:00;;;;;;;4.40;3.15;;;33.30;73.60;;;;;;5029490;28;20547;-59
2022/08/05 05:28:04;;;;;;;7.05;3.08;;;33.40;73.20;;;;;;5030107;28;20504;-58
2022/08/05 05:31:08;;;;;;;7.50;3.22;;;33.20;73.40;;;;;;5029311;28;20060;-59
2022/08/05 05:34:12;;;;;;;6.72;3.08;;;33.20;73.30;;;;;;5029307;28;20040;-57
2022/08/05 05:37:16;;;;;;;5.75;3.20;;;33.20;73.20;;;;;;5029348;28;20053;-55
2022/08/05 05:40:22;;;;;;;5.85;3.33;;;33.40;72.90;;;;;;5023733;28;20049;-59
2022/08/05 05:43:26;;;;;;;12.38;4.03;;;33.90;72.10;;;;;;5009859;28;20045;-60
2022/08/05 05:46:30;;;;;;;6.78;3.05;;;33.60;71.80;;;;;;5013796;28;20057;-59
2022/08/05 05:49:35;;;;;;;9.05;3.50;;;34.00;71.60;;;;;;5001519;28;20061;-57
2022/08/05 05:52:40;;;;;;;3.85;3.10;;;34.40;70.70;;;;;;5013960;28;20053;-56
2022/08/05 05:55:44;;;;;;;8.63;3.13;;;33.20;71.20;;;;;;5013121;28;20052;-58
2022/08/05 05:58:49;;;;;;;8.60;3.55;;;32.70;71.80;;;;;;5019829;28;20070;-58
2022/08/05 06:01:53;;;;;;;10.82;3.65;;;31.70;72.60;;;;;;5015366;28;20101;-59
2022/08/05 06:04:57;;;;;;;6.88;3.40;;;31.00;74.10;;;;;;5031149;28;20056;-59
2022/08/05 06:08:01;;;;;;;4.75;2.83;;;32.00;73.30;;;;;;5033239;28;20060;-58
2022/08/05 06:11:05;;;;;;;8.02;3.60;;;32.80;72.10;;;;;;5032990;28;20223;-58
2022/08/05 06:14:09;;;;;;;37.33;4.97;;;32.80;71.30;;;;;;5032543;28;20052;-59
2022/08/05 06:17:13;;;;;;;7.00;2.80;;;33.00;71.00;;;;;;5033210;28;20064;-59
2022/08/05 06:20:17;;;;;;;9.80;2.95;;;33.80;70.30;;;;;;5031044;28;20065;-58
2022/08/05 06:23:21;;;;;;;6.25;2.95;;;34.00;69.30;;;;;;5015656;28;20076;-58
2022/08/05 06:26:25;;;;;;;5.70;2.90;;;33.80;68.90;;;;;;5012886;28;20056;-59
2022/08/05 06:29:29;;;;;;;5.38;2.20;;;34.40;69.10;;;;;;5013349;28;20052;-60
2022/08/05 06:32:33;;;;;;;8.10;2.90;;;34.70;68.60;;;;;;5015170;28;20064;-59
2022/08/05 06:35:37;;;;;;;8.55;2.75;;;35.00;68.10;;;;;;5012577;28;20049;-60
2022/08/05 06:38:41;;;;;;;9.05;3.08;;;35.20;67.30;;;;;;5012849;28;20045;-58
2022/08/05 06:41:45;;;;;;;7.93;2.63;;;35.30;67.00;;;;;;5012666;28;20045;-60
2022/08/05 06:44:52;;;;;;;4.60;2.55;;;35.70;66.40;;;;;;5012306;28;20432;-59
2022/08/05 06:47:56;;;;;;;6.60;2.70;;;35.80;66.30;;;;;;5012521;28;20049;-60
2022/08/05 06:51:00;;;;;;;6.13;2.35;;;36.00;65.60;;;;;;5012457;28;20413;-59
2022/08/05 06:54:04;;;;;;;8.63;2.58;;;36.50;64.90;;;;;;5026422;28;20056;-57
2022/08/05 06:57:08;;;;;;;4.60;2.30;;;34.50;65.80;;;;;;5030900;28;20064;-59
2022/08/05 07:00:12;;;;;;;8.20;2.40;;;34.10;68.00;;;;;;5032051;28;20044;-59
2022/08/05 07:03:17;;;;;;;4.47;2.53;;;33.50;67.60;;;;;;5026014;28;20040;-60
2022/08/05 07:06:22;;;;;;;5.05;2.75;;;34.30;67.50;;;;;;5031097;28;20056;-60
2022/08/05 07:09:26;;;;;;;2.72;2.25;;;34.90;66.70;;;;;;5023696;28;20040;-59
2022/08/05 07:19:18;;;;;;;4.60;2.83;;;33.50;67.50;;;;;;5028128;28;20040;-60
2022/08/05 07:22:22;;;;;;;3.78;2.40;;;35.00;67.10;;;;;;5028567;28;20119;-60
2022/08/05 07:25:26;;;;;;;8.95;2.33;;;34.30;66.60;;;;;;5026539;28;20040;-60
2022/08/05 07:28:31;;;;;;;7.00;2.33;;;35.40;66.30;;;;;;5020858;28;20048;-59
2022/08/05 07:31:35;;;;;;;8.48;2.50;;;34.90;66.30;;;;;;5023674;28;20040;-59
2022/08/05 07:34:39;;;;;;;5.75;2.40;;;35.00;66.40;;;;;;5021567;28;20558;-60
2022/08/05 07:37:43;;;;;;;9.13;2.65;;;36.70;64.80;;;;;;5007463;28;20060;-55
2022/08/05 07:40:47;;;;;;;6.85;2.85;;;35.40;66.60;;;;;;5027469;28;20492;-57
2022/08/05 07:43:52;;;;;;;7.90;4.07;;;36.50;64.70;;;;;;5031562;28;20045;-60
2022/08/05 07:46:57;;;;;;;8.55;2.45;;;36.10;65.30;;;;;;5027697;28;20052;-59
2022/08/05 07:50:02;;;;;;;2.33;1.70;;;36.90;64.90;;;;;;5027513;28;20053;-60
2022/08/05 07:53:06;;;;;;;6.63;2.30;;;37.30;64.30;;;;;;5029360;28;20045;-59
2022/08/05 07:56:10;;;;;;;2.90;1.60;;;36.20;63.70;;;;;;5018951;28;20040;-59
2022/08/05 07:59:14;;;;;;;3.67;1.83;;;36.60;65.30;;;;;;5023840;28;20048;-60
2022/08/05 08:02:24;;;;;;;8.43;1.95;;;37.70;63.20;;;;;;5022990;28;20036;-59
2022/08/05 08:05:28;;;;;;;3.08;2.03;;;38.90;61.70;;;;;;5017789;28;20037;-60
2022/08/05 08:08:32;;;;;;;8.13;2.30;;;36.50;63.50;;;;;;5031041;28;20052;-59
2022/08/05 08:11:36;;;;;;;4.18;1.80;;;38.00;63.40;;;;;;5030542;28;20044;-60
2022/08/05 08:14:43;;;;;;;6.75;2.00;;;39.90;61.30;;;;;;5016442;28;20049;-60
2022/08/05 08:17:47;;;;;;;3.30;1.67;;;39.40;60.50;;;;;;5027259;28;20698;-60
2022/08/05 08:20:51;;;;;;;3.88;1.90;;;39.10;62.00;;;;;;5023699;28;20049;-61
2022/08/05 08:23:56;;;;;;;11.70;2.05;;;40.90;60.50;;;;;;5026952;28;20048;-59
2022/08/05 08:27:00;;;;;;;3.15;1.50;;;42.40;59.10;;;;;;5020725;28;20049;-59
2022/08/05 08:30:05;;;;;;;3.75;2.00;;;41.90;58.00;;;;;;5023978;28;20048;-60
2022/08/05 08:33:11;;;;;;;2.60;1.73;;;40.80;58.80;;;;;;5027790;28;20041;-61
2022/08/05 08:36:15;;;;;;;6.13;2.13;;;42.20;58.50;;;;;;5031075;28;20064;-59
2022/08/05 08:39:22;;;;;;;3.80;1.63;;;43.90;56.80;;;;;;5021096;28;20412;-59
2022/08/05 08:42:27;;;;;;;4.47;1.70;;;45.00;56.60;;;;;;5034310;28;20063;-61
2022/08/05 08:45:35;;;;;;;3.25;2.03;;;44.20;55.40;;;;;;5022413;28;20044;-60
2022/08/05 08:48:45;;;;;;;3.97;1.65;;;42.30;56.70;;;;;;5006668;28;20048;-61
2022/08/05 08:52:10;;;;;;;2.33;1.38;;;43.60;56.10;;;;;;5023344;28;20511;-58
2022/08/05 08:55:14;;;;;;;1.77;1.30;;;43.10;55.70;;;;;;5024708;28;20052;-61
2022/08/05 08:58:18;;;;;;;5.97;1.60;;;44.70;55.10;;;;;;5030610;28;20040;-60
2022/08/05 09:01:22;;;;;;;2.50;1.48;;;45.50;54.20;;;;;;5030771;28;20040;-60
2022/08/05 09:04:26;;;;;;;5.85;1.63;;;45.20;54.10;;;;;;5030952;28;20400;-60
2022/08/05 09:07:30;;;;;;;2.95;1.35;;;47.20;53.80;;;;;;5015964;28;20040;-60
2022/08/05 09:10:35;;;;;;;6.47;1.50;;;48.50;52.60;;;;;;5030050;28;20036;-60
2022/08/05 09:13:40;;;;;;;3.88;1.50;;;49.10;51.60;;;;;;5020648;28;20053;-61
2022/08/05 09:16:44;;;;;;;5.15;1.70;;;49.40;51.10;;;;;;5020871;28;20527;-61
2022/08/05 09:19:48;;;;;;;7.60;1.77;;;49.60;51.20;;;;;;5024768;28;20049;-61
2022/08/05 09:23:10;;;;;;;5.15;1.38;;;50.30;50.60;;;;;;5023415;28;20045;-61
2022/08/05 09:49:54;;;;;;;6.38;1.35;;;51.40;51.40;;;;;;5026538;28;20539;-62
2022/08/05 09:52:58;;;;;;;4.03;1.60;;;52.70;50.70;;;;;;5028819;28;20040;-62
2022/08/05 09:56:02;;;;;;;3.25;1.20;;;53.50;50.80;;;;;;5027776;28;20048;-61
2022/08/05 09:59:09;;;;;;;9.73;8.07;;;53.50;50.00;;;;;;5028704;28;20044;-61
2022/08/05 10:02:28;;;;;;;3.78;1.58;;;54.10;49.80;;;;;;5028953;28;20511;-60
2022/08/05 10:05:34;;;;;;;2.08;1.30;;;54.40;50.00;;;;;;5029078;28;20515;-62
2022/08/05 10:08:38;;;;;;;2.80;1.33;;;54.50;49.90;;;;;;5028873;28;20518;-59
2022/08/05 10:11:44;;;;;;;5.63;1.50;;;55.10;49.50;;;;;;5017048;28;20048;-62
2022/08/05 10:14:48;;;;;;;2.72;1.60;;;55.10;49.30;;;;;;5022449;28;20056;-61
2022/08/05 10:18:05;;;;;;;5.22;1.65;;;54.80;49.40;;;;;;5028891;28;20070;-61
2022/08/05 10:21:09;;;;;;;5.25;1.45;;;52.60;49.50;;;;;;5029253;28;20040;-62
2022/08/05 10:24:13;;;;;;;5.05;1.40;;;53.00;50.20;;;;;;5028905;28;20044;-60
2022/08/05 10:27:17;;;;;;;4.32;1.35;;;53.40;49.80;;;;;;5028833;28;20044;-60
2022/08/05 10:30:21;;;;;;;3.28;1.20;;;54.00;49.70;;;;;;5016960;28;20041;-61
2022/08/05 10:33:28;;;;;;;4.38;1.50;;;54.40;49.50;;;;;;5031643;28;20048;-61
2022/08/05 10:36:34;;;;;;;3.90;1.30;;;54.60;49.20;;;;;;5031883;28;20511;-60
2022/08/05 10:39:42;;;;;;;4.05;1.63;;;54.50;49.20;;;;;;5030265;28;20064;-60
2022/08/05 10:42:50;;;;;;;8.95;1.52;;;54.40;48.90;;;;;;5022592;28;20056;-59
2022/08/05 10:45:56;;;;;;;3.22;1.33;;;54.30;48.90;;;;;;5032735;28;20045;-59
2022/08/05 10:49:07;;;;;;;4.30;1.25;;;54.50;49.10;;;;;;5031606;28;20056;-59
2022/08/05 10:52:38;;;;;;;18.17;3.08;;;54.50;49.30;;;;;;5024179;28;20769;-60
2022/08/05 10:56:06;;;;;;;8.25;1.58;;;52.80;49.00;;;;;;5029870;28;20536;-60
2022/08/05 10:59:09;;;;;;;2.90;1.50;;;51.40;50.50;;;;;;5031412;28;20503;-61
2022/08/05 11:02:14;;;;;;;4.05;1.60;;;50.80;50.40;;;;;;5032386;28;20064;-61
2022/08/05 11:05:18;;;;;;;1.85;1.42;;;50.90;50.60;;;;;;5031807;28;20040;-60
2022/08/05 11:08:23;;;;;;;2.40;1.73;;;45.80;52.50;;;;;;5025758;28;20060;-60
2022/08/05 11:11:34;;;;;;;5.95;1.95;;;45.50;53.00;;;;;;5025347;28;20043;-60
2022/08/05 11:14:39;;;;;;;6.80;1.40;;;47.40;52.30;;;;;;5026354;28;20049;-61
2022/08/05 11:17:45;;;;;;;4.68;1.90;;;46.30;52.90;;;;;;5032073;28;20418;-61
2022/08/05 11:20:51;;;;;;;2.97;1.60;;;45.00;53.80;;;;;;5028972;28;20043;-60
2022/08/05 11:23:55;;;;;;;3.97;1.67;;;45.60;53.90;;;;;;5030875;28;20048;-60
2022/08/05 11:27:28;;;;;;;3.20;1.40;;;47.70;52.10;;;;;;5031695;28;20565;-60
2022/08/05 11:30:55;;;;;;;3.92;1.45;;;50.10;50.70;;;;;;5031388;28;20060;-61
2022/08/05 11:34:05;;;;;;;3.05;1.33;;;50.60;50.10;;;;;;5027811;28;20499;-62
2022/08/05 11:37:09;;;;;;;3.35;1.25;;;51.20;50.20;;;;;;5027793;28;20048;-59
2022/08/05 11:40:14;;;;;;;3.42;1.40;;;50.90;50.50;;;;;;5027328;28;20057;-60
2022/08/05 11:43:21;;;;;;;2.20;1.40;;;50.10;50.10;;;;;;5029777;28;20105;-59
2022/08/05 11:46:51;;;;;;;2.80;1.50;;;48.00;51.30;;;;;;5020886;28;20613;-60
2022/08/05 11:49:59;;;;;;;6.75;1.80;;;45.30;52.70;;;;;;5028075;28;20052;-59
2022/08/05 11:53:04;;;;;;;4.32;1.58;;;44.30;53.60;;;;;;5023997;28;20033;-60
2022/08/05 11:56:08;;;;;;;6.28;1.73;;;44.90;52.90;;;;;;5025622;28;20404;-60
2022/08/05 11:59:25;;;;;;;4.35;1.88;;;46.60;52.20;;;;;;5022939;28;20518;-59
2022/08/05 12:02:32;;;;;;;3.08;1.58;;;46.60;51.10;;;;;;5021750;28;20037;-58
2022/08/05 12:05:37;;;;;;;4.38;1.40;;;46.70;52.00;;;;;;5012276;28;20400;-61
2022/08/05 12:08:53;;;;;;;3.40;1.42;;;47.60;51.30;;;;;;5026488;28;20048;-59
2022/08/05 12:11:58;;;;;;;5.32;1.30;;;47.30;51.70;;;;;;5020336;28;20044;-57
2022/08/05 12:15:03;;;;;;;3.20;1.80;;;48.10;51.10;;;;;;5027493;28;20048;-58
2022/08/05 12:18:08;;;;;;;3.05;1.58;;;48.80;50.00;;;;;;5025985;28;20041;-59
2022/08/05 12:21:17;;;;;;;1.98;1.25;;;44.70;51.80;;;;;;5023198;28;20523;-59
2022/08/05 12:24:21;;;;;;;2.92;1.60;;;45.60;51.80;;;;;;5029102;28;20110;-57
2022/08/05 12:27:30;;;;;;;4.45;1.63;;;42.10;53.90;;;;;;5028861;28;20064;-59
2022/08/05 12:30:37;;;;;;;2.50;1.95;;;40.50;55.80;;;;;;5023764;28;20052;-60
2022/08/05 12:33:43;;;;;;;5.00;1.75;;;41.60;54.40;;;;;;5029921;28;20424;-60
2022/08/05 12:36:49;;;;;;;4.45;1.70;;;42.00;53.90;;;;;;5031491;22;20061;-72
2022/08/05 12:39:56;;;;;;;3.83;1.55;;;42.30;53.70;;;;;;5009742;28;20125;-75
2022/08/05 12:43:00;;;;;;;3.25;1.40;;;42.90;53.10;;;;;;5009740;28;20285;-77
2022/08/05 12:46:04;;;;;;;5.00;1.58;;;43.80;52.90;;;;;;5009345;28;20065;-78
2022/08/05 12:49:10;;;;;;;4.50;1.50;;;45.30;51.70;;;;;;5010525;28;20412;-71
2022/08/05 12:52:16;;;;;;;2.75;1.40;;;46.10;51.00;;;;;;5010136;28;20056;-74
2022/08/05 12:55:24;;;;;;;4.68;1.48;;;46.50;50.80;;;;;;5005914;28;20045;-76
2022/08/05 12:58:28;;;;;;;2.75;1.75;;;46.80;50.60;;;;;;5008408;28;20254;-75
2022/08/05 13:01:35;;;;;;;4.50;1.50;;;47.30;50.10;;;;;;5002355;28;20393;-73
2022/08/05 13:04:42;;;;;;;6.25;1.50;;;47.40;50.30;;;;;;5006547;28;20041;-74
2022/08/05 13:07:47;;;;;;;2.75;1.75;;;42.50;51.10;;;;;;5008107;28;20072;-76
2022/08/05 13:10:50;;;;;;;2.53;1.67;;;41.30;53.70;;;;;;5009185;28;20053;-77
2022/08/05 13:13:58;;;;;;;4.70;1.60;;;41.10;53.60;;;;;;5007530;28;20049;-74
2022/08/05 13:17:16;;;;;;;4.30;2.10;;;40.40;54.50;;;;;;5005138;28;20046;-76
2022/08/05 13:20:20;;;;;;;2.38;1.60;;;41.00;54.00;;;;;;5005414;28;20534;-77
2022/08/05 13:23:24;;;;;;;2.55;1.67;;;40.50;53.90;;;;;;5006321;28;20033;-76
2022/08/05 13:26:29;;;;;;;2.08;1.70;;;41.20;54.30;;;;;;5005847;28;20041;-74
2022/08/05 13:29:33;;;;;;;2.13;1.65;;;41.30;54.40;;;;;;5006126;28;20037;-76
2022/08/05 13:32:38;;;;;;;10.73;2.10;;;41.60;53.40;;;;;;5001156;28;20041;-75
2022/08/05 13:35:42;;;;;;;2.80;1.90;;;41.30;55.10;;;;;;5000654;28;20053;-76
2022/08/05 13:38:46;;;;;;;4.80;1.60;;;42.10;53.70;;;;;;4999012;28;20053;-76
2022/08/05 13:42:34;;;;;;;3.58;1.80;;;42.80;53.50;;;;;;5003067;28;20044;-77
2022/08/05 13:45:38;;;;;;;3.80;1.75;;;43.30;52.80;;;;;;5004587;28;20045;-71
2022/08/05 13:48:42;;;;;;;4.68;1.90;;;42.90;52.50;;;;;;5010487;28;20049;-72
2022/08/05 13:51:47;;;;;;;3.47;1.70;;;40.40;54.20;;;;;;5003879;28;20064;-74
2022/08/05 13:54:55;;;;;;;5.57;1.80;;;40.10;54.90;;;;;;5016209;28;20045;-75
2022/08/05 13:57:59;;;;;;;3.47;1.92;;;41.00;54.30;;;;;;5010014;28;20053;-76
2022/08/05 14:01:04;;;;;;;3.40;1.77;;;41.60;53.90;;;;;;5010147;28;20041;-74
2022/08/05 14:07:39;;;;;;;4.63;1.88;;;42.30;53.20;;;;;;5014273;28;20377;-75
2022/08/05 14:10:42;;;;;;;6.03;2.10;;;41.40;54.20;;;;;;5013978;28;20049;-76
2022/08/05 14:13:46;;;;;;;13.52;2.65;;;40.50;54.90;;;;;;5012786;28;20060;-72
2022/08/05 14:16:50;;;;;;;4.55;1.75;;;40.70;55.30;;;;;;5010428;28;20917;-77
2022/08/05 14:19:55;;;;;;;5.05;1.60;;;41.00;55.20;;;;;;5013555;28;20044;-76
2022/08/05 14:23:00;;;;;;;2.00;1.75;;;40.70;55.40;;;;;;5013811;28;20049;-73
2022/08/05 14:26:04;;;;;;;7.53;1.80;;;41.30;55.10;;;;;;5013459;28;20044;-76
2022/08/05 14:29:08;;;;;;;3.15;1.83;;;41.50;55.40;;;;;;5001339;28;20053;-76
2022/08/05 14:32:12;;;;;;;2.45;1.85;;;41.70;55.10;;;;;;5013452;28;20049;-75
2022/08/05 14:49:47;;;;;;;6.22;1.98;;;41.30;55.90;;;;;;5015152;28;20057;-71
2022/08/05 14:52:51;;;;;;;;;;;38.00;58.60;;;;;;5013745;28;20064;-72
2022/08/05 14:55:56;;;;;;;6.97;1.75;;;37.40;60.20;;;;;;5013352;28;20287;-75
2022/08/05 14:59:00;;;;;;;4.95;1.70;;;38.00;59.70;;;;;;5013060;28;20427;-75
2022/08/05 15:02:05;;;;;;;5.78;1.83;;;38.80;59.00;;;;;;5013284;28;20048;-76
2022/08/05 15:05:09;;;;;;;5.65;1.63;;;38.50;58.30;;;;;;5012996;28;20041;-74
2022/08/05 15:08:13;;;;;;;6.72;1.65;;;38.20;59.40;;;;;;5013378;28;20057;-75
2022/08/05 15:11:17;;;;;;;3.78;1.70;;;38.50;59.00;;;;;;5013356;28;20296;-71
2022/08/05 15:14:22;;;;;;;5.43;1.95;;;38.90;58.90;;;;;;5013100;28;20058;-71
2022/08/05 15:17:26;;;;;;;5.40;1.73;;;38.90;58.20;;;;;;5012151;28;20397;-73
2022/08/05 15:20:30;;;;;;;6.72;1.88;;;38.70;58.10;;;;;;5000698;28;20045;-72
2022/08/05 15:23:34;;;;;;;4.72;1.73;;;38.60;57.90;;;;;;5012317;28;20393;-73
2022/08/05 15:26:39;;;;;;;15.07;2.20;;;38.60;58.30;;;;;;5012661;28;20053;-72
2022/08/05 15:29:43;;;;;;;5.70;1.52;;;37.60;58.30;;;;;;5012546;28;20392;-72
2022/08/05 15:32:47;;;;;;;2.17;1.40;;;37.90;58.20;;;;;;5012594;28;20045;-73
2022/08/05 15:35:51;;;;;;;7.68;1.70;;;38.00;57.90;;;;;;5012080;28;20044;-73
2022/08/05 15:38:55;;;;;;;4.30;1.40;;;37.70;58.00;;;;;;5012574;28;20049;-70
2022/08/05 15:41:59;;;;;;;2.42;1.40;;;37.90;58.20;;;;;;5012165;28;20495;-71
2022/08/05 15:45:04;;;;;;;3.88;1.52;;;37.90;57.80;;;;;;5011918;28;20385;-70
2022/08/05 15:48:08;;;;;;;2.33;1.80;;;38.00;58.00;;;;;;5012492;28;20052;-71
2022/08/05 15:51:12;;;;;;;4.97;1.55;;;37.90;57.90;;;;;;5012058;28;20052;-71
2022/08/05 15:54:16;;;;;;;3.88;1.50;;;37.80;58.00;;;;;;5011849;28;20045;-70
2022/08/05 15:57:20;;;;;;;5.75;1.48;;;37.70;57.90;;;;;;5012220;28;20053;-71
2022/08/05 16:00:24;;;;;;;3.00;1.40;;;37.70;58.30;;;;;;5011835;28;20453;-71
2022/08/05 16:03:28;;;;;;;13.63;1.73;;;37.50;57.70;;;;;;5012733;28;20045;-70
2022/08/05 16:06:32;;;;;;;5.13;1.58;;;37.30;58.10;;;;;;5011245;28;20053;-70
2022/08/05 16:09:36;;;;;;;5.10;1.70;;;37.10;58.40;;;;;;5012215;28;20045;-71
2022/08/05 16:12:40;;;;;;;6.55;1.73;;;37.00;58.40;;;;;;5012425;28;20045;-72
2022/08/05 16:15:43;;;;;;;4.25;1.60;;;36.90;58.20;;;;;;5011879;28;20400;-72
2022/08/05 16:18:47;;;;;;;4.53;1.50;;;36.70;58.10;;;;;;5012549;28;20405;-73
2022/08/05 16:21:52;;;;;;;5.82;1.75;;;36.70;58.30;;;;;;5012378;28;20036;-74
2022/08/05 16:24:56;;;;;;;2.95;1.60;;;36.60;58.20;;;;;;5012064;28;20053;-75
2022/08/05 16:28:04;;;;;;;2.58;1.52;;;36.40;58.30;;;;;;5011377;28;20070;-74
2022/08/05 16:31:08;;;;;;;4.38;2.10;;;36.40;58.30;;;;;;5011420;28;20045;-75
2022/08/05 16:34:12;;;;;;;7.72;1.85;;;36.30;58.20;;;;;;5011297;28;20508;-73
2022/08/05 16:37:15;;;;;;;4.43;1.77;;;36.10;58.10;;;;;;4999783;28;20044;-75
2022/08/05 16:40:20;;;;;;;4.25;1.88;;;36.00;58.20;;;;;;5011108;28;20053;-76
2022/08/05 16:43:25;;;;;;;2.08;1.50;;;35.80;58.30;;;;;;5010757;28;20065;-73
2022/08/05 16:46:29;;;;;;;4.78;1.45;;;35.70;58.50;;;;;;5011063;28;20045;-76
2022/08/05 16:49:32;;;;;;;4.43;1.73;;;35.60;58.80;;;;;;5011026;28;20060;-74
2022/08/05 16:52:36;;;;;;;5.43;2.28;;;35.60;58.80;;;;;;5011066;28;20052;-76
2022/08/05 16:55:40;;;;;;;6.13;1.65;;;35.60;58.80;;;;;;5010777;28;20060;-74
2022/08/05 16:58:45;;;;;;;3.15;1.95;;;35.50;58.80;;;;;;5011001;28;20048;-72